sensor_id;sensor_type;location;lat;lon;timestamp;P1;durP1;ratioP1;P2;durP2;ratioP2
15883;SDS011;8040;50.254;10.960;2023-10-09T00:02:23;532.60;;;296.55;;
15883;SDS011;8040;50.254;10.960;2023-10-09T00:04:49;528.93;;;291.77;;
15883;SDS011;8040;50.254;10.960;2023-10-09T00:07:16;531.40;;;292.95;;
15883;SDS011;8040;50.254;10.960;2023-10-09T00:09:42;530.25;;;292.73;;
15883;SDS011;8040;50.254;10.960;2023-10-09T00:12:16;534.22;;;299.50;;
15883;SDS011;8040;50.254;10.960;2023-10-09T00:14:54;530.80;;;294.73;;
15883;SDS011;8040;50.254;10.960;2023-10-09T00:17:32;532.63;;;296.25;;
15883;SDS011;8040;50.254;10.960;2023-10-09T00:19:57;531.83;;;298.13;;
15883;SDS011;8040;50.254;10.960;2023-10-09T00:22:25;530.42;;;294.08;;
15883;SDS011;8040;50.254;10.960;2023-10-09T00:24:55;539.83;;;295.63;;
15883;SDS011;8040;50.254;10.960;2023-10-09T00:27:44;533.80;;;291.55;;
15883;SDS011;8040;50.254;10.960;2023-10-09T00:30:17;533.47;;;292.63;;
15883;SDS011;8040;50.254;10.960;2023-10-09T00:32:43;530.83;;;286.55;;
15883;SDS011;8040;50.254;10.960;2023-10-09T00:35:28;526.07;;;288.27;;
15883;SDS011;8040;50.254;10.960;2023-10-09T00:38:23;531.17;;;288.83;;
15883;SDS011;8040;50.254;10.960;2023-10-09T00:40:52;533.35;;;291.35;;
15883;SDS011;8040;50.254;10.960;2023-10-09T00:43:33;528.80;;;289.83;;
15883;SDS011;8040;50.254;10.960;2023-10-09T00:46:01;534.85;;;284.27;;
15883;SDS011;8040;50.254;10.960;2023-10-09T00:48:28;530.72;;;292.73;;
15883;SDS011;8040;50.254;10.960;2023-10-09T00:51:02;535.92;;;292.45;;
15883;SDS011;8040;50.254;10.960;2023-10-09T00:53:44;528.95;;;287.63;;
15883;SDS011;8040;50.254;10.960;2023-10-09T00:56:16;534.50;;;291.17;;
15883;SDS011;8040;50.254;10.960;2023-10-09T00:59:06;529.85;;;285.88;;
15883;SDS011;8040;50.254;10.960;2023-10-09T01:01:40;537.90;;;291.50;;
15883;SDS011;8040;50.254;10.960;2023-10-09T01:04:10;535.25;;;288.02;;
15883;SDS011;8040;50.254;10.960;2023-10-09T01:06:41;539.78;;;289.20;;
15883;SDS011;8040;50.254;10.960;2023-10-09T01:09:09;533.47;;;288.50;;
15883;SDS011;8040;50.254;10.960;2023-10-09T01:11:39;536.58;;;289.70;;
15883;SDS011;8040;50.254;10.960;2023-10-09T01:14:16;535.95;;;288.50;;
15883;SDS011;8040;50.254;10.960;2023-10-09T01:16:42;537.55;;;295.63;;
15883;SDS011;8040;50.254;10.960;2023-10-09T01:19:08;536.47;;;295.58;;
15883;SDS011;8040;50.254;10.960;2023-10-09T01:22:00;537.15;;;292.45;;
15883;SDS011;8040;50.254;10.960;2023-10-09T01:24:29;538.03;;;295.00;;
15883;SDS011;8040;50.254;10.960;2023-10-09T01:26:57;539.28;;;292.33;;
15883;SDS011;8040;50.254;10.960;2023-10-09T01:29:24;532.75;;;289.58;;
15883;SDS011;8040;50.254;10.960;2023-10-09T01:31:56;535.70;;;290.65;;
15883;SDS011;8040;50.254;10.960;2023-10-09T01:37:15;537.45;;;294.88;;
15883;SDS011;8040;50.254;10.960;2023-10-09T01:39:50;534.78;;;289.10;;
15883;SDS011;8040;50.254;10.960;2023-10-09T01:42:17;537.40;;;292.27;;
15883;SDS011;8040;50.254;10.960;2023-10-09T01:44:55;530.97;;;281.23;;
15883;SDS011;8040;50.254;10.960;2023-10-09T01:47:23;538.10;;;288.88;;
15883;SDS011;8040;50.254;10.960;2023-10-09T01:49:51;533.20;;;285.45;;
15883;SDS011;8040;50.254;10.960;2023-10-09T01:52:18;536.97;;;289.13;;
15883;SDS011;8040;50.254;10.960;2023-10-09T01:54:45;531.70;;;284.20;;
15883;SDS011;8040;50.254;10.960;2023-10-09T01:57:15;534.65;;;284.90;;
15883;SDS011;8040;50.254;10.960;2023-10-09T01:59:47;531.72;;;288.45;;
15883;SDS011;8040;50.254;10.960;2023-10-09T02:02:18;536.08;;;285.13;;
15883;SDS011;8040;50.254;10.960;2023-10-09T02:04:50;526.65;;;281.05;;
15883;SDS011;8040;50.254;10.960;2023-10-09T02:07:20;531.63;;;287.17;;
15883;SDS011;8040;50.254;10.960;2023-10-09T02:09:57;531.90;;;288.17;;
15883;SDS011;8040;50.254;10.960;2023-10-09T02:12:22;535.95;;;291.30;;
15883;SDS011;8040;50.254;10.960;2023-10-09T02:14:50;526.25;;;285.23;;
15883;SDS011;8040;50.254;10.960;2023-10-09T02:17:21;533.30;;;283.90;;
15883;SDS011;8040;50.254;10.960;2023-10-09T02:19:49;527.20;;;282.55;;
15883;SDS011;8040;50.254;10.960;2023-10-09T02:22:18;532.40;;;285.10;;
15883;SDS011;8040;50.254;10.960;2023-10-09T02:24:44;527.13;;;286.20;;
15883;SDS011;8040;50.254;10.960;2023-10-09T02:27:13;535.10;;;292.90;;
15883;SDS011;8040;50.254;10.960;2023-10-09T02:29:45;529.53;;;285.98;;
15883;SDS011;8040;50.254;10.960;2023-10-09T02:32:13;538.05;;;293.90;;
15883;SDS011;8040;50.254;10.960;2023-10-09T02:34:41;526.03;;;282.95;;
15883;SDS011;8040;50.254;10.960;2023-10-09T02:37:11;533.83;;;291.80;;
15883;SDS011;8040;50.254;10.960;2023-10-09T02:39:38;531.17;;;289.25;;
15883;SDS011;8040;50.254;10.960;2023-10-09T02:42:13;532.28;;;284.90;;
15883;SDS011;8040;50.254;10.960;2023-10-09T02:44:39;528.78;;;292.48;;
15883;SDS011;8040;50.254;10.960;2023-10-09T02:47:05;535.67;;;290.23;;
15883;SDS011;8040;50.254;10.960;2023-10-09T02:49:37;527.97;;;282.92;;
15883;SDS011;8040;50.254;10.960;2023-10-09T02:52:05;533.33;;;291.10;;
15883;SDS011;8040;50.254;10.960;2023-10-09T02:54:32;527.10;;;289.25;;
15883;SDS011;8040;50.254;10.960;2023-10-09T02:57:06;534.55;;;290.30;;
15883;SDS011;8040;50.254;10.960;2023-10-09T02:59:40;528.30;;;288.30;;
15883;SDS011;8040;50.254;10.960;2023-10-09T03:02:10;531.23;;;290.67;;
15883;SDS011;8040;50.254;10.960;2023-10-09T03:04:36;531.38;;;292.23;;
15883;SDS011;8040;50.254;10.960;2023-10-09T03:07:04;531.63;;;289.57;;
15883;SDS011;8040;50.254;10.960;2023-10-09T03:09:30;529.83;;;289.90;;
15883;SDS011;8040;50.254;10.960;2023-10-09T03:11:58;535.75;;;291.10;;
15883;SDS011;8040;50.254;10.960;2023-10-09T03:14:28;532.35;;;290.10;;
15883;SDS011;8040;50.254;10.960;2023-10-09T03:17:00;542.53;;;297.10;;
15883;SDS011;8040;50.254;10.960;2023-10-09T03:19:25;533.65;;;293.50;;
15883;SDS011;8040;50.254;10.960;2023-10-09T03:21:52;530.30;;;285.90;;
15883;SDS011;8040;50.254;10.960;2023-10-09T03:24:17;540.67;;;295.43;;
15883;SDS011;8040;50.254;10.960;2023-10-09T03:26:44;539.72;;;297.08;;
15883;SDS011;8040;50.254;10.960;2023-10-09T03:29:11;536.83;;;296.17;;
15883;SDS011;8040;50.254;10.960;2023-10-09T03:31:37;536.22;;;295.08;;
15883;SDS011;8040;50.254;10.960;2023-10-09T03:34:03;535.45;;;292.75;;
15883;SDS011;8040;50.254;10.960;2023-10-09T03:36:29;537.45;;;292.10;;
15883;SDS011;8040;50.254;10.960;2023-10-09T03:38:58;529.47;;;287.67;;
15883;SDS011;8040;50.254;10.960;2023-10-09T03:41:25;541.42;;;294.52;;
15883;SDS011;8040;50.254;10.960;2023-10-09T03:43:54;527.08;;;283.42;;
15883;SDS011;8040;50.254;10.960;2023-10-09T03:46:22;540.45;;;291.67;;
15883;SDS011;8040;50.254;10.960;2023-10-09T03:48:52;537.15;;;293.75;;
15883;SDS011;8040;50.254;10.960;2023-10-09T03:51:21;538.28;;;293.83;;
15883;SDS011;8040;50.254;10.960;2023-10-09T03:53:47;539.37;;;293.30;;
15883;SDS011;8040;50.254;10.960;2023-10-09T03:56:13;543.13;;;293.35;;
15883;SDS011;8040;50.254;10.960;2023-10-09T03:58:41;539.03;;;288.10;;
15883;SDS011;8040;50.254;10.960;2023-10-09T04:01:11;539.45;;;290.73;;
15883;SDS011;8040;50.254;10.960;2023-10-09T04:03:57;540.67;;;295.42;;
15883;SDS011;8040;50.254;10.960;2023-10-09T04:06:28;542.28;;;294.67;;
15883;SDS011;8040;50.254;10.960;2023-10-09T04:08:58;528.55;;;285.10;;
15883;SDS011;8040;50.254;10.960;2023-10-09T04:11:27;538.00;;;290.67;;
15883;SDS011;8040;50.254;10.960;2023-10-09T04:13:52;530.75;;;296.98;;
15883;SDS011;8040;50.254;10.960;2023-10-09T04:16:18;545.05;;;300.50;;
15883;SDS011;8040;50.254;10.960;2023-10-09T04:19:02;532.70;;;293.85;;
15883;SDS011;8040;50.254;10.960;2023-10-09T04:21:47;538.83;;;297.73;;
15883;SDS011;8040;50.254;10.960;2023-10-09T04:24:13;555.57;;;308.67;;
15883;SDS011;8040;50.254;10.960;2023-10-09T04:26:42;545.38;;;300.70;;
15883;SDS011;8040;50.254;10.960;2023-10-09T04:29:10;536.30;;;292.77;;
15883;SDS011;8040;50.254;10.960;2023-10-09T04:32:03;567.78;;;312.00;;
15883;SDS011;8040;50.254;10.960;2023-10-09T04:34:32;540.78;;;300.20;;
15883;SDS011;8040;50.254;10.960;2023-10-09T04:37:03;549.60;;;308.48;;
15883;SDS011;8040;50.254;10.960;2023-10-09T04:39:47;545.05;;;299.50;;
15883;SDS011;8040;50.254;10.960;2023-10-09T04:42:13;543.17;;;301.10;;
15883;SDS011;8040;50.254;10.960;2023-10-09T04:44:48;539.67;;;298.55;;
15883;SDS011;8040;50.254;10.960;2023-10-09T04:47:37;557.15;;;309.23;;
15883;SDS011;8040;50.254;10.960;2023-10-09T04:50:14;541.20;;;301.03;;
15883;SDS011;8040;50.254;10.960;2023-10-09T04:52:44;547.33;;;300.80;;
15883;SDS011;8040;50.254;10.960;2023-10-09T04:55:09;545.08;;;302.00;;
15883;SDS011;8040;50.254;10.960;2023-10-09T04:57:35;540.97;;;297.52;;
15883;SDS011;8040;50.254;10.960;2023-10-09T05:00:06;537.20;;;294.30;;
15883;SDS011;8040;50.254;10.960;2023-10-09T05:02:48;545.50;;;302.67;;
15883;SDS011;8040;50.254;10.960;2023-10-09T05:05:23;560.20;;;311.85;;
15883;SDS011;8040;50.254;10.960;2023-10-09T05:11:01;556.60;;;306.42;;
15883;SDS011;8040;50.254;10.960;2023-10-09T05:13:31;554.00;;;307.38;;
15883;SDS011;8040;50.254;10.960;2023-10-09T05:16:03;576.67;;;320.13;;
15883;SDS011;8040;50.254;10.960;2023-10-09T05:18:40;559.25;;;304.98;;
15883;SDS011;8040;50.254;10.960;2023-10-09T05:21:07;571.88;;;311.73;;
15883;SDS011;8040;50.254;10.960;2023-10-09T05:23:39;571.90;;;313.92;;
15883;SDS011;8040;50.254;10.960;2023-10-09T05:26:17;574.08;;;319.00;;
15883;SDS011;8040;50.254;10.960;2023-10-09T05:29:08;534.92;;;297.73;;
15883;SDS011;8040;50.254;10.960;2023-10-09T05:35:54;523.90;;;288.75;;
15883;SDS011;8040;50.254;10.960;2023-10-09T05:39:15;601.15;;;316.00;;
15883;SDS011;8040;50.254;10.960;2023-10-09T05:42:07;547.65;;;298.27;;
15883;SDS011;8040;50.254;10.960;2023-10-09T05:44:44;528.20;;;288.08;;
15883;SDS011;8040;50.254;10.960;2023-10-09T05:55:49;542.67;;;303.48;;
15883;SDS011;8040;50.254;10.960;2023-10-09T05:58:33;567.20;;;315.55;;
15883;SDS011;8040;50.254;10.960;2023-10-09T06:01:21;556.07;;;308.63;;
15883;SDS011;8040;50.254;10.960;2023-10-09T06:04:12;558.53;;;311.58;;
15883;SDS011;8040;50.254;10.960;2023-10-09T06:06:44;548.15;;;308.65;;
15883;SDS011;8040;50.254;10.960;2023-10-09T06:09:10;548.40;;;307.77;;
15883;SDS011;8040;50.254;10.960;2023-10-09T06:11:42;543.87;;;306.00;;
15883;SDS011;8040;50.254;10.960;2023-10-09T06:14:24;534.47;;;301.98;;
15883;SDS011;8040;50.254;10.960;2023-10-09T06:16:56;533.53;;;297.58;;
15883;SDS011;8040;50.254;10.960;2023-10-09T06:19:26;528.23;;;301.47;;
15883;SDS011;8040;50.254;10.960;2023-10-09T06:22:00;551.80;;;316.98;;
15883;SDS011;8040;50.254;10.960;2023-10-09T06:24:39;536.80;;;299.58;;
15883;SDS011;8040;50.254;10.960;2023-10-09T06:27:20;550.57;;;307.33;;
15883;SDS011;8040;50.254;10.960;2023-10-09T06:29:55;554.30;;;311.33;;
15883;SDS011;8040;50.254;10.960;2023-10-09T06:32:49;542.00;;;301.53;;
15883;SDS011;8040;50.254;10.960;2023-10-09T06:38:19;535.40;;;295.67;;
15883;SDS011;8040;50.254;10.960;2023-10-09T06:40:47;533.72;;;296.88;;
15883;SDS011;8040;50.254;10.960;2023-10-09T06:43:32;542.30;;;299.63;;
15883;SDS011;8040;50.254;10.960;2023-10-09T06:46:02;542.50;;;302.67;;
15883;SDS011;8040;50.254;10.960;2023-10-09T06:48:47;597.65;;;325.92;;
15883;SDS011;8040;50.254;10.960;2023-10-09T06:51:22;541.33;;;303.37;;
15883;SDS011;8040;50.254;10.960;2023-10-09T06:53:51;524.40;;;289.23;;
15883;SDS011;8040;50.254;10.960;2023-10-09T06:56:20;528.55;;;296.55;;
15883;SDS011;8040;50.254;10.960;2023-10-09T06:58:55;525.42;;;291.00;;
15883;SDS011;8040;50.254;10.960;2023-10-09T07:01:23;531.15;;;299.45;;
15883;SDS011;8040;50.254;10.960;2023-10-09T07:04:11;532.72;;;302.50;;
15883;SDS011;8040;50.254;10.960;2023-10-09T07:07:06;536.78;;;301.98;;
15883;SDS011;8040;50.254;10.960;2023-10-09T07:09:41;536.17;;;301.88;;
15883;SDS011;8040;50.254;10.960;2023-10-09T07:12:08;530.47;;;298.40;;
15883;SDS011;8040;50.254;10.960;2023-10-09T07:14:51;533.08;;;299.75;;
15883;SDS011;8040;50.254;10.960;2023-10-09T07:20:09;529.05;;;297.00;;
15883;SDS011;8040;50.254;10.960;2023-10-09T07:22:39;539.88;;;308.92;;
15883;SDS011;8040;50.254;10.960;2023-10-09T07:25:17;535.78;;;296.70;;
15883;SDS011;8040;50.254;10.960;2023-10-09T07:28:05;538.38;;;303.45;;
15883;SDS011;8040;50.254;10.960;2023-10-09T07:30:44;531.42;;;296.63;;
15883;SDS011;8040;50.254;10.960;2023-10-09T07:33:11;535.53;;;305.73;;
15883;SDS011;8040;50.254;10.960;2023-10-09T07:35:37;536.17;;;293.60;;
15883;SDS011;8040;50.254;10.960;2023-10-09T07:38:19;555.70;;;310.07;;
15883;SDS011;8040;50.254;10.960;2023-10-09T07:40:47;546.33;;;306.92;;
15883;SDS011;8040;50.254;10.960;2023-10-09T07:43:36;544.53;;;305.88;;
15883;SDS011;8040;50.254;10.960;2023-10-09T07:46:19;545.47;;;307.90;;
15883;SDS011;8040;50.254;10.960;2023-10-09T07:49:03;544.67;;;310.03;;
15883;SDS011;8040;50.254;10.960;2023-10-09T07:51:39;545.15;;;309.27;;
15883;SDS011;8040;50.254;10.960;2023-10-09T07:54:09;543.08;;;308.10;;
15883;SDS011;8040;50.254;10.960;2023-10-09T07:56:42;556.38;;;318.95;;
15883;SDS011;8040;50.254;10.960;2023-10-09T07:59:15;550.83;;;312.07;;
15883;SDS011;8040;50.254;10.960;2023-10-09T08:01:49;547.23;;;307.63;;
15883;SDS011;8040;50.254;10.960;2023-10-09T08:04:27;554.50;;;318.17;;
15883;SDS011;8040;50.254;10.960;2023-10-09T08:07:06;541.03;;;309.90;;
15883;SDS011;8040;50.254;10.960;2023-10-09T08:09:44;541.60;;;309.58;;
15883;SDS011;8040;50.254;10.960;2023-10-09T08:12:36;544.30;;;312.63;;
15883;SDS011;8040;50.254;10.960;2023-10-09T08:15:13;543.57;;;309.37;;
15883;SDS011;8040;50.254;10.960;2023-10-09T08:20:35;537.60;;;316.83;;
15883;SDS011;8040;50.254;10.960;2023-10-09T08:23:22;540.88;;;314.73;;
15883;SDS011;8040;50.254;10.960;2023-10-09T08:26:03;544.28;;;318.70;;
15883;SDS011;8040;50.254;10.960;2023-10-09T08:28:37;533.45;;;307.83;;
15883;SDS011;8040;50.254;10.960;2023-10-09T08:31:12;538.95;;;313.15;;
15883;SDS011;8040;50.254;10.960;2023-10-09T08:33:58;537.63;;;308.13;;
15883;SDS011;8040;50.254;10.960;2023-10-09T08:36:28;550.38;;;318.65;;
15883;SDS011;8040;50.254;10.960;2023-10-09T08:38:56;542.15;;;316.25;;
15883;SDS011;8040;50.254;10.960;2023-10-09T08:41:26;545.25;;;317.83;;
15883;SDS011;8040;50.254;10.960;2023-10-09T08:43:55;540.20;;;318.70;;
15883;SDS011;8040;50.254;10.960;2023-10-09T08:48:54;533.78;;;311.83;;
15883;SDS011;8040;50.254;10.960;2023-10-09T08:51:21;529.10;;;308.40;;
15883;SDS011;8040;50.254;10.960;2023-10-09T08:53:48;539.90;;;316.83;;
15883;SDS011;8040;50.254;10.960;2023-10-09T08:56:16;537.17;;;316.57;;
15883;SDS011;8040;50.254;10.960;2023-10-09T08:58:55;557.17;;;324.35;;
15883;SDS011;8040;50.254;10.960;2023-10-09T09:01:23;555.35;;;324.27;;
15883;SDS011;8040;50.254;10.960;2023-10-09T09:03:53;554.85;;;326.05;;
15883;SDS011;8040;50.254;10.960;2023-10-09T09:06:22;553.67;;;322.90;;
15883;SDS011;8040;50.254;10.960;2023-10-09T09:08:48;557.77;;;329.63;;
15883;SDS011;8040;50.254;10.960;2023-10-09T09:11:17;554.53;;;326.63;;
15883;SDS011;8040;50.254;10.960;2023-10-09T09:13:48;538.35;;;323.55;;
15883;SDS011;8040;50.254;10.960;2023-10-09T09:16:40;549.75;;;327.35;;
15883;SDS011;8040;50.254;10.960;2023-10-09T09:19:09;542.55;;;319.20;;
15883;SDS011;8040;50.254;10.960;2023-10-09T09:21:38;544.90;;;320.17;;
15883;SDS011;8040;50.254;10.960;2023-10-09T09:24:06;547.25;;;322.45;;
15883;SDS011;8040;50.254;10.960;2023-10-09T09:26:39;542.20;;;326.23;;
15883;SDS011;8040;50.254;10.960;2023-10-09T09:29:11;550.10;;;325.52;;
15883;SDS011;8040;50.254;10.960;2023-10-09T09:31:37;535.05;;;321.17;;
15883;SDS011;8040;50.254;10.960;2023-10-09T09:34:06;546.27;;;323.20;;
15883;SDS011;8040;50.254;10.960;2023-10-09T09:36:57;542.33;;;328.13;;
15883;SDS011;8040;50.254;10.960;2023-10-09T09:39:24;542.50;;;326.40;;
15883;SDS011;8040;50.254;10.960;2023-10-09T09:41:58;551.85;;;328.20;;
15883;SDS011;8040;50.254;10.960;2023-10-09T09:44:32;546.75;;;327.83;;
15883;SDS011;8040;50.254;10.960;2023-10-09T09:47:08;558.08;;;336.27;;
15883;SDS011;8040;50.254;10.960;2023-10-09T09:49:38;541.00;;;322.92;;
15883;SDS011;8040;50.254;10.960;2023-10-09T09:52:06;553.10;;;333.50;;
15883;SDS011;8040;50.254;10.960;2023-10-09T09:54:38;538.40;;;327.17;;
15883;SDS011;8040;50.254;10.960;2023-10-09T09:57:04;537.30;;;345.65;;
15883;SDS011;8040;50.254;10.960;2023-10-09T09:59:39;545.70;;;332.73;;
15883;SDS011;8040;50.254;10.960;2023-10-09T10:02:07;544.27;;;330.30;;
15883;SDS011;8040;50.254;10.960;2023-10-09T10:04:39;553.30;;;334.88;;
15883;SDS011;8040;50.254;10.960;2023-10-09T10:07:07;544.08;;;335.55;;
15883;SDS011;8040;50.254;10.960;2023-10-09T10:09:38;554.27;;;341.50;;
15883;SDS011;8040;50.254;10.960;2023-10-09T10:12:08;551.92;;;337.95;;
15883;SDS011;8040;50.254;10.960;2023-10-09T10:21:15;556.80;;;345.70;;
15883;SDS011;8040;50.254;10.960;2023-10-09T10:23:44;550.33;;;340.63;;
15883;SDS011;8040;50.254;10.960;2023-10-09T10:26:31;553.07;;;340.80;;
15883;SDS011;8040;50.254;10.960;2023-10-09T10:31:59;545.42;;;339.33;;
15883;SDS011;8040;50.254;10.960;2023-10-09T10:37:43;551.80;;;342.58;;
15883;SDS011;8040;50.254;10.960;2023-10-09T10:40:25;545.47;;;338.77;;
15883;SDS011;8040;50.254;10.960;2023-10-09T10:43:23;553.72;;;346.50;;
15883;SDS011;8040;50.254;10.960;2023-10-09T10:46:11;551.03;;;344.92;;
15883;SDS011;8040;50.254;10.960;2023-10-09T10:48:55;558.72;;;344.23;;
15883;SDS011;8040;50.254;10.960;2023-10-09T10:51:40;558.67;;;345.58;;
15883;SDS011;8040;50.254;10.960;2023-10-09T10:54:07;553.27;;;344.30;;
15883;SDS011;8040;50.254;10.960;2023-10-09T10:56:51;557.47;;;347.27;;
15883;SDS011;8040;50.254;10.960;2023-10-09T10:59:20;573.13;;;356.07;;
15883;SDS011;8040;50.254;10.960;2023-10-09T11:04:25;558.97;;;344.50;;
15883;SDS011;8040;50.254;10.960;2023-10-09T11:06:54;573.60;;;354.33;;
15883;SDS011;8040;50.254;10.960;2023-10-09T11:09:26;570.20;;;349.58;;
15883;SDS011;8040;50.254;10.960;2023-10-09T11:12:06;596.63;;;368.60;;
15883;SDS011;8040;50.254;10.960;2023-10-09T11:14:46;591.45;;;357.88;;
15883;SDS011;8040;50.254;10.960;2023-10-09T11:17:31;581.78;;;369.05;;
15883;SDS011;8040;50.254;10.960;2023-10-09T11:19:58;584.20;;;376.40;;
15883;SDS011;8040;50.254;10.960;2023-10-09T11:22:45;580.05;;;366.90;;
15883;SDS011;8040;50.254;10.960;2023-10-09T11:25:41;584.53;;;376.70;;
15883;SDS011;8040;50.254;10.960;2023-10-09T11:28:32;558.50;;;345.73;;
15883;SDS011;8040;50.254;10.960;2023-10-09T11:31:23;549.78;;;339.33;;
15883;SDS011;8040;50.254;10.960;2023-10-09T11:33:49;562.50;;;334.73;;
15883;SDS011;8040;50.254;10.960;2023-10-09T11:36:19;571.22;;;354.17;;
15883;SDS011;8040;50.254;10.960;2023-10-09T11:38:59;566.28;;;335.73;;
15883;SDS011;8040;50.254;10.960;2023-10-09T11:41:46;549.00;;;324.42;;
15883;SDS011;8040;50.254;10.960;2023-10-09T11:44:17;567.53;;;336.45;;
15883;SDS011;8040;50.254;10.960;2023-10-09T11:46:59;543.72;;;321.88;;
15883;SDS011;8040;50.254;10.960;2023-10-09T11:49:54;542.33;;;319.27;;
15883;SDS011;8040;50.254;10.960;2023-10-09T11:52:29;557.70;;;335.92;;
15883;SDS011;8040;50.254;10.960;2023-10-09T11:55:02;538.70;;;324.10;;
15883;SDS011;8040;50.254;10.960;2023-10-09T11:57:32;557.25;;;335.70;;
15883;SDS011;8040;50.254;10.960;2023-10-09T12:00:00;549.78;;;326.00;;
15883;SDS011;8040;50.254;10.960;2023-10-09T12:02:35;552.97;;;329.77;;
15883;SDS011;8040;50.254;10.960;2023-10-09T12:08:49;563.55;;;333.40;;
15883;SDS011;8040;50.254;10.960;2023-10-09T12:11:15;536.37;;;321.10;;
15883;SDS011;8040;50.254;10.960;2023-10-09T12:13:50;540.92;;;321.33;;
15883;SDS011;8040;50.254;10.960;2023-10-09T12:16:21;536.72;;;320.13;;
15883;SDS011;8040;50.254;10.960;2023-10-09T12:18:58;553.90;;;377.13;;
15883;SDS011;8040;50.254;10.960;2023-10-09T12:21:27;548.50;;;373.60;;
15883;SDS011;8040;50.254;10.960;2023-10-09T12:23:53;532.38;;;359.80;;
15883;SDS011;8040;50.254;10.960;2023-10-09T12:26:22;534.15;;;358.00;;
15883;SDS011;8040;50.254;10.960;2023-10-09T12:28:48;536.73;;;354.53;;
15883;SDS011;8040;50.254;10.960;2023-10-09T12:31:15;531.15;;;345.63;;
15883;SDS011;8040;50.254;10.960;2023-10-09T12:33:45;526.97;;;336.40;;
15883;SDS011;8040;50.254;10.960;2023-10-09T12:36:12;524.40;;;328.80;;
15883;SDS011;8040;50.254;10.960;2023-10-09T12:38:44;537.30;;;333.23;;
15883;SDS011;8040;50.254;10.960;2023-10-09T12:41:15;518.73;;;319.93;;
15883;SDS011;8040;50.254;10.960;2023-10-09T12:44:00;517.42;;;325.48;;
15883;SDS011;8040;50.254;10.960;2023-10-09T12:46:26;540.10;;;340.42;;
15883;SDS011;8040;50.254;10.960;2023-10-09T12:48:55;519.13;;;317.73;;
15883;SDS011;8040;50.254;10.960;2023-10-09T12:51:21;519.72;;;320.95;;
15883;SDS011;8040;50.254;10.960;2023-10-09T12:53:54;527.00;;;329.70;;
15883;SDS011;8040;50.254;10.960;2023-10-09T12:56:24;525.97;;;328.05;;
15883;SDS011;8040;50.254;10.960;2023-10-09T12:59:02;517.83;;;324.70;;
15883;SDS011;8040;50.254;10.960;2023-10-09T13:01:30;504.88;;;317.42;;
15883;SDS011;8040;50.254;10.960;2023-10-09T13:04:08;502.87;;;318.70;;
15883;SDS011;8040;50.254;10.960;2023-10-09T13:06:37;501.50;;;323.40;;
15883;SDS011;8040;50.254;10.960;2023-10-09T13:12:08;504.65;;;321.92;;
15883;SDS011;8040;50.254;10.960;2023-10-09T13:14:37;523.40;;;321.60;;
15883;SDS011;8040;50.254;10.960;2023-10-09T13:17:02;515.55;;;320.23;;
15883;SDS011;8040;50.254;10.960;2023-10-09T13:19:34;515.67;;;320.90;;
15883;SDS011;8040;50.254;10.960;2023-10-09T13:22:00;520.67;;;322.67;;
15883;SDS011;8040;50.254;10.960;2023-10-09T13:24:28;544.60;;;329.33;;
15883;SDS011;8040;50.254;10.960;2023-10-09T13:26:55;546.53;;;332.17;;
15883;SDS011;8040;50.254;10.960;2023-10-09T13:29:23;553.35;;;333.40;;
15883;SDS011;8040;50.254;10.960;2023-10-09T13:31:50;519.13;;;321.25;;
15883;SDS011;8040;50.254;10.960;2023-10-09T13:34:23;515.58;;;322.75;;
15883;SDS011;8040;50.254;10.960;2023-10-09T13:36:53;513.22;;;321.63;;
15883;SDS011;8040;50.254;10.960;2023-10-09T13:39:19;512.90;;;322.17;;
15883;SDS011;8040;50.254;10.960;2023-10-09T13:41:58;508.27;;;320.08;;
15883;SDS011;8040;50.254;10.960;2023-10-09T13:44:30;507.42;;;322.27;;
15883;SDS011;8040;50.254;10.960;2023-10-09T13:46:57;492.83;;;311.95;;
15883;SDS011;8040;50.254;10.960;2023-10-09T13:49:25;511.48;;;322.30;;
15883;SDS011;8040;50.254;10.960;2023-10-09T13:54:34;522.35;;;317.30;;
15883;SDS011;8040;50.254;10.960;2023-10-09T13:57:00;518.40;;;310.13;;
15883;SDS011;8040;50.254;10.960;2023-10-09T13:59:28;527.87;;;317.23;;
15883;SDS011;8040;50.254;10.960;2023-10-09T14:01:54;524.33;;;315.27;;
15883;SDS011;8040;50.254;10.960;2023-10-09T14:04:23;510.30;;;307.30;;
15883;SDS011;8040;50.254;10.960;2023-10-09T14:06:54;513.33;;;311.97;;
15883;SDS011;8040;50.254;10.960;2023-10-09T14:09:25;505.63;;;312.83;;
15883;SDS011;8040;50.254;10.960;2023-10-09T14:12:03;521.97;;;316.00;;
15883;SDS011;8040;50.254;10.960;2023-10-09T14:14:33;519.55;;;314.83;;
15883;SDS011;8040;50.254;10.960;2023-10-09T14:17:12;513.97;;;315.45;;
15883;SDS011;8040;50.254;10.960;2023-10-09T14:19:56;506.50;;;311.00;;
15883;SDS011;8040;50.254;10.960;2023-10-09T14:22:41;514.58;;;314.08;;
15883;SDS011;8040;50.254;10.960;2023-10-09T14:25:07;506.30;;;308.07;;
15883;SDS011;8040;50.254;10.960;2023-10-09T14:27:40;521.87;;;309.63;;
15883;SDS011;8040;50.254;10.960;2023-10-09T14:30:06;514.65;;;309.20;;
15883;SDS011;8040;50.254;10.960;2023-10-09T14:32:56;518.88;;;307.27;;
15883;SDS011;8040;50.254;10.960;2023-10-09T14:35:22;516.95;;;306.48;;
15883;SDS011;8040;50.254;10.960;2023-10-09T14:38:08;537.13;;;329.33;;
15883;SDS011;8040;50.254;10.960;2023-10-09T14:40:40;529.37;;;314.60;;
15883;SDS011;8040;50.254;10.960;2023-10-09T14:43:09;529.58;;;316.48;;
15883;SDS011;8040;50.254;10.960;2023-10-09T14:45:47;528.47;;;316.60;;
15883;SDS011;8040;50.254;10.960;2023-10-09T14:48:16;513.70;;;310.05;;
15883;SDS011;8040;50.254;10.960;2023-10-09T14:50:49;507.52;;;307.30;;
15883;SDS011;8040;50.254;10.960;2023-10-09T14:53:23;548.95;;;324.38;;
15883;SDS011;8040;50.254;10.960;2023-10-09T14:55:55;539.75;;;319.92;;
15883;SDS011;8040;50.254;10.960;2023-10-09T14:58:21;531.75;;;320.05;;
15883;SDS011;8040;50.254;10.960;2023-10-09T15:00:50;542.03;;;326.60;;
15883;SDS011;8040;50.254;10.960;2023-10-09T15:03:16;541.83;;;327.50;;
15883;SDS011;8040;50.254;10.960;2023-10-09T15:05:45;555.20;;;329.30;;
15883;SDS011;8040;50.254;10.960;2023-10-09T15:08:13;551.08;;;324.77;;
15883;SDS011;8040;50.254;10.960;2023-10-09T15:10:45;536.45;;;320.20;;
15883;SDS011;8040;50.254;10.960;2023-10-09T15:13:25;545.53;;;325.33;;
15883;SDS011;8040;50.254;10.960;2023-10-09T15:15:53;524.05;;;321.67;;
15883;SDS011;8040;50.254;10.960;2023-10-09T15:18:20;529.05;;;316.77;;
15883;SDS011;8040;50.254;10.960;2023-10-09T15:20:47;528.20;;;324.00;;
15883;SDS011;8040;50.254;10.960;2023-10-09T15:23:13;539.90;;;322.75;;
15883;SDS011;8040;50.254;10.960;2023-10-09T15:25:39;527.73;;;319.63;;